createdAt,value
2022-12-24T00:00:09.693Z,18.48
2022-12-24T00:07:11.779Z,19.15
2022-12-24T00:14:13.732Z,20.50
2022-12-24T00:21:16.369Z,22.30
2022-12-24T00:28:18.433Z,25.58
2022-12-24T00:35:20.486Z,27.17
2022-12-24T00:42:22.626Z,25.63
2022-12-24T00:49:24.713Z,23.60
2022-12-24T00:56:26.892Z,20.13
2022-12-24T01:03:35.783Z,21.10
2022-12-24T01:10:37.767Z,17.17
2022-12-24T01:17:40.514Z,20.42
2022-12-24T01:24:43.426Z,19.58
2022-12-24T01:31:45.612Z,18.08
2022-12-24T01:38:47.590Z,16.70
2022-12-24T01:45:53.291Z,16.13
2022-12-24T01:52:55.218Z,16.83
2022-12-24T01:59:59.370Z,17.17
2022-12-24T02:07:01.651Z,14.73
2022-12-24T02:14:03.687Z,16.48
2022-12-24T02:21:24.079Z,15.85
2022-12-24T02:28:28.727Z,14.98
2022-12-24T02:35:38.543Z,15.93
2022-12-24T02:42:42.339Z,16.45
2022-12-24T02:49:46.213Z,17.27
2022-12-24T02:56:57.349Z,15.82
2022-12-24T03:04:01.958Z,17.13
2022-12-24T03:11:12.490Z,16.23
2022-12-24T03:18:17.572Z,14.57
2022-12-24T03:25:20.546Z,14.85
2022-12-24T03:32:29.109Z,13.23
2022-12-24T03:39:31.022Z,13.07
2022-12-24T03:46:33.248Z,13.05
2022-12-24T03:53:35.169Z,10.82
2022-12-24T04:00:37.178Z,11.27
2022-12-24T04:07:39.190Z,9.07
2022-12-24T04:14:41.174Z,8.85
2022-12-24T04:21:43.150Z,8.02
2022-12-24T04:28:45.138Z,8.85
2022-12-24T04:35:47.127Z,8.18
2022-12-24T04:42:50.706Z,8.55
2022-12-24T04:49:52.749Z,7.95
2022-12-24T04:56:54.909Z,7.30
2022-12-24T05:03:56.967Z,9.52
2022-12-24T05:10:59.718Z,8.13
2022-12-24T05:18:01.736Z,8.23
2022-12-24T05:25:22.684Z,7.82
2022-12-24T05:32:24.639Z,8.18
2022-12-24T05:39:26.681Z,6.97
2022-12-24T05:46:28.742Z,7.28
2022-12-24T05:53:30.712Z,9.65
2022-12-24T06:00:33.896Z,9.43
2022-12-24T06:07:36.123Z,10.70
2022-12-24T06:14:38.041Z,14.20
2022-12-24T06:21:40.092Z,8.38
2022-12-24T06:28:42.168Z,6.95
2022-12-24T06:35:46.286Z,7.20
2022-12-24T06:42:48.436Z,7.18
2022-12-24T06:49:51.293Z,5.95
2022-12-24T06:56:53.263Z,6.20
2022-12-24T07:03:55.291Z,6.97
2022-12-24T07:10:59.531Z,7.45
2022-12-24T07:18:01.521Z,7.40
2022-12-24T07:25:03.653Z,7.38
2022-12-24T07:32:05.864Z,7.60
2022-12-24T07:39:07.791Z,6.10
2022-12-24T07:46:09.920Z,5.93
2022-12-24T07:53:12.016Z,6.03
2022-12-24T08:00:14.936Z,6.72
2022-12-24T08:07:16.995Z,6.00
2022-12-24T08:14:19.187Z,6.22
2022-12-24T08:21:21.188Z,6.32
2022-12-24T08:28:25.761Z,6.82
2022-12-24T08:35:27.956Z,6.28
2022-12-24T08:42:29.915Z,6.32
2022-12-24T08:49:32.143Z,6.50
2022-12-24T08:56:34.779Z,7.40
2022-12-24T09:03:37.024Z,8.45
2022-12-24T09:10:39.048Z,7.57
2022-12-24T09:17:41.279Z,7.15
2022-12-24T09:24:43.242Z,6.82
2022-12-24T09:31:45.254Z,5.63
2022-12-24T09:38:48.107Z,6.35
2022-12-24T09:45:56.039Z,5.57
2022-12-24T09:52:59.136Z,6.20
2022-12-24T10:00:01.321Z,7.65
2022-12-24T10:07:12.360Z,7.85
2022-12-24T10:14:59.334Z,7.70
2022-12-24T10:22:12.860Z,7.68
2022-12-24T10:29:18.574Z,7.78
2022-12-24T10:36:24.388Z,7.15
2022-12-24T10:43:28.575Z,7.35
2022-12-24T10:50:38.127Z,8.07
2022-12-24T10:57:41.102Z,8.18
2022-12-24T11:04:48.060Z,7.65
2022-12-24T11:11:50.232Z,8.23
2022-12-24T11:18:57.946Z,9.60
2022-12-24T11:26:00.116Z,9.50
2022-12-24T11:33:02.030Z,8.20
2022-12-24T11:40:04.192Z,8.90
2022-12-24T11:47:08.124Z,7.72
2022-12-24T11:54:24.521Z,9.43
2022-12-24T12:01:48.694Z,8.35
2022-12-24T12:08:56.816Z,7.50
2022-12-24T12:16:14.513Z,8.25
2022-12-24T12:23:29.869Z,7.70
2022-12-24T12:30:32.514Z,8.20
2022-12-24T12:37:38.990Z,8.98
2022-12-24T12:45:07.773Z,7.57
2022-12-24T12:52:36.422Z,7.25
2022-12-24T12:59:42.105Z,7.80
2022-12-24T13:07:16.051Z,7.32
2022-12-24T13:14:39.728Z,8.00
2022-12-24T13:21:45.971Z,9.10
2022-12-24T13:28:48.039Z,7.65
2022-12-24T13:36:06.012Z,7.57
2022-12-24T13:43:11.717Z,7.78
2022-12-24T13:50:23.251Z,7.85
2022-12-24T13:57:45.012Z,8.75
2022-12-24T14:04:50.731Z,8.52
2022-12-24T14:12:01.737Z,8.82
2022-12-24T14:19:14.710Z,8.80
2022-12-24T14:26:18.839Z,9.00
2022-12-24T14:33:35.524Z,8.45
2022-12-24T14:41:06.347Z,9.55
2022-12-24T14:48:34.750Z,8.65
2022-12-24T14:55:41.055Z,9.68
2022-12-24T15:02:51.601Z,7.97
2022-12-24T15:09:54.398Z,8.98
2022-12-24T15:17:00.098Z,10.63
2022-12-24T15:24:02.206Z,11.07
2022-12-24T15:31:17.249Z,9.90
2022-12-24T15:38:26.716Z,9.18
2022-12-24T15:45:30.903Z,8.90
2022-12-24T15:52:39.686Z,9.52
2022-12-24T15:59:41.852Z,8.23
2022-12-24T16:07:03.375Z,8.45
2022-12-24T16:14:19.034Z,7.38
2022-12-24T16:21:34.350Z,7.75
2022-12-24T16:28:36.592Z,7.18
2022-12-24T16:35:38.689Z,6.72
2022-12-24T16:42:59.275Z,7.07
2022-12-24T16:50:03.337Z,7.10
2022-12-24T16:57:05.331Z,7.15
2022-12-24T17:04:07.318Z,6.55
2022-12-24T17:11:09.350Z,6.40
2022-12-24T17:18:11.318Z,7.32
2022-12-24T17:25:14.445Z,8.20
2022-12-24T17:32:16.593Z,7.75
2022-12-24T17:39:24.041Z,6.25
2022-12-24T17:46:29.475Z,7.47
2022-12-24T17:53:35.773Z,6.88
2022-12-24T18:00:38.738Z,6.82
2022-12-24T18:07:40.756Z,6.88
2022-12-24T18:14:42.824Z,7.07
2022-12-24T18:21:44.786Z,7.40
2022-12-24T18:28:47.668Z,7.68
2022-12-24T18:35:49.781Z,8.82
2022-12-24T18:42:51.833Z,8.30
2022-12-24T18:49:53.745Z,10.15
2022-12-24T18:56:56.569Z,9.30
2022-12-24T19:03:59.061Z,9.75
2022-12-24T19:11:01.017Z,8.70
2022-12-24T19:18:02.908Z,8.73
2022-12-24T19:25:05.415Z,8.68
2022-12-24T19:32:07.422Z,8.13
2022-12-24T19:39:09.694Z,7.32
2022-12-24T19:46:17.008Z,8.10
2022-12-24T19:53:20.448Z,7.47
2022-12-24T20:00:24.004Z,8.13
2022-12-24T20:07:31.988Z,7.75
2022-12-24T20:14:37.385Z,7.47
2022-12-24T20:21:41.406Z,8.25
2022-12-24T20:28:49.655Z,8.10
2022-12-24T20:35:54.106Z,7.93
2022-12-24T20:43:00.305Z,7.55
2022-12-24T20:50:07.607Z,7.97
2022-12-24T20:57:12.717Z,8.68
2022-12-24T21:04:15.056Z,7.75
2022-12-24T21:11:35.558Z,8.57
2022-12-24T21:18:37.760Z,8.27
2022-12-24T21:25:39.739Z,8.10
2022-12-24T21:32:41.904Z,8.05
2022-12-24T21:39:43.896Z,7.68
2022-12-24T21:46:46.015Z,8.77
2022-12-24T21:54:06.410Z,10.35
2022-12-24T22:01:09.832Z,10.30
2022-12-24T22:08:50.686Z,8.77
2022-12-24T22:22:55.639Z,8.63
2022-12-24T22:29:58.955Z,8.77
2022-12-24T22:37:00.958Z,9.13
2022-12-24T22:44:03.022Z,10.55
2022-12-24T22:51:07.100Z,9.02
2022-12-24T22:58:09.117Z,9.20
2022-12-24T23:05:15.217Z,9.80
2022-12-24T23:12:37.229Z,9.98
2022-12-24T23:19:39.452Z,10.00
2022-12-24T23:26:41.995Z,10.05
2022-12-24T23:33:43.963Z,9.98
2022-12-24T23:40:45.927Z,11.38
2022-12-24T23:47:47.812Z,10.60
2022-12-24T23:54:49.802Z,10.82
